createdAt,value
2023-04-18T00:00:29.272Z,96.52
2023-04-18T00:02:55.998Z,97.02
2023-04-18T00:05:23.110Z,97.59
2023-04-18T00:07:49.687Z,97.51
2023-04-18T00:10:16.810Z,94.91
2023-04-18T00:12:43.331Z,94.48
2023-04-18T00:15:10.062Z,95.80
2023-04-18T00:17:39.725Z,96.66
2023-04-18T00:20:10.663Z,95.74
2023-04-18T00:22:42.896Z,96.21
2023-04-18T00:25:10.432Z,96.62
2023-04-18T00:27:38.485Z,96.34
2023-04-18T00:30:06.749Z,96.35
2023-04-18T00:32:33.323Z,95.45
2023-04-18T00:34:59.973Z,95.83
2023-04-18T00:37:27.120Z,96.64
2023-04-18T00:39:54.031Z,96.87
2023-04-18T00:42:21.885Z,96.71
2023-04-18T00:44:48.934Z,97.18
2023-04-18T00:47:19.249Z,97.19
2023-04-18T00:49:47.945Z,94.57
2023-04-18T00:52:16.687Z,95.42
2023-04-18T00:54:44.710Z,96.25
2023-04-18T00:57:12.316Z,93.99
2023-04-18T00:59:39.213Z,94.66
2023-04-18T01:02:07.692Z,95.04
2023-04-18T01:04:34.346Z,96.23
2023-04-18T01:07:02.260Z,96.26
2023-04-18T01:09:29.366Z,96.39
2023-04-18T01:11:56.128Z,96.24
2023-04-18T01:14:22.782Z,97.09
2023-04-18T01:16:49.350Z,97.38
2023-04-18T01:19:17.754Z,97.42
2023-04-18T01:21:44.199Z,97.86
2023-04-18T01:24:15.539Z,95.97
2023-04-18T01:26:44.074Z,96.22
2023-04-18T01:29:11.290Z,97.01
2023-04-18T01:31:38.650Z,97.56
2023-04-18T01:34:07.402Z,97.87
2023-04-18T01:36:34.898Z,98.24
2023-04-18T01:39:02.098Z,98.64
2023-04-18T01:41:32.292Z,98.67
2023-04-18T01:43:59.811Z,99.02
2023-04-18T01:46:26.730Z,98.16
2023-04-18T01:48:53.932Z,98.90
2023-04-18T01:51:21.464Z,98.01
2023-04-18T01:53:47.994Z,98.84
2023-04-18T01:56:14.413Z,98.71
2023-04-18T01:58:41.699Z,98.93
2023-04-18T02:01:08.575Z,98.70
2023-04-18T02:03:35.448Z,99.11
2023-04-18T02:06:04.074Z,98.96
2023-04-18T02:08:32.916Z,97.90
2023-04-18T02:11:01.022Z,99.39
2023-04-18T02:13:28.074Z,98.29
2023-04-18T02:15:54.540Z,98.32
2023-04-18T02:18:22.038Z,97.34
2023-04-18T02:20:48.839Z,97.41
2023-04-18T02:23:15.458Z,97.33
2023-04-18T02:25:41.921Z,97.28
2023-04-18T02:28:09.253Z,97.80
2023-04-18T02:30:35.779Z,97.63
2023-04-18T02:33:02.312Z,97.20
2023-04-18T02:35:29.207Z,97.38
2023-04-18T02:37:55.790Z,97.45
2023-04-18T02:40:22.267Z,97.01
2023-04-18T02:42:48.630Z,96.90
2023-04-18T02:45:15.414Z,97.38
2023-04-18T02:47:53.834Z,97.59
2023-04-18T02:50:21.743Z,97.57
2023-04-18T02:52:48.467Z,96.61
2023-04-18T02:55:16.917Z,95.20
2023-04-18T02:57:44.546Z,94.92
2023-04-18T03:00:43.310Z,95.31
2023-04-18T03:03:28.384Z,93.55
2023-04-18T03:06:14.922Z,95.87
2023-04-18T03:08:41.777Z,97.55
2023-04-18T03:11:08.812Z,98.22
2023-04-18T03:13:35.902Z,98.82
2023-04-18T03:16:03.115Z,98.70
2023-04-18T03:18:31.574Z,99.62
2023-04-18T03:20:59.132Z,99.75
2023-04-18T03:23:27.271Z,100.00
2023-04-18T03:25:53.650Z,99.70
2023-04-18T03:28:20.450Z,99.09
2023-04-18T03:30:46.870Z,100.00
2023-04-18T03:33:14.792Z,100.00
2023-04-18T03:35:41.821Z,100.00
2023-04-18T03:38:08.321Z,100.00
2023-04-18T03:40:38.043Z,100.00
2023-04-18T03:43:11.669Z,100.00
2023-04-18T03:45:38.172Z,100.00
2023-04-18T03:48:05.425Z,100.00
2023-04-18T03:50:35.508Z,100.00
2023-04-18T03:53:04.153Z,100.00
2023-04-18T03:55:33.788Z,100.00
2023-04-18T03:58:01.651Z,100.00
2023-04-18T04:00:29.414Z,100.00
2023-04-18T04:03:02.051Z,100.00
2023-04-18T04:05:28.919Z,100.00
2023-04-18T04:07:55.394Z,100.00
2023-04-18T04:10:23.103Z,100.00
2023-04-18T04:12:50.461Z,100.00
2023-04-18T04:15:17.807Z,100.00
2023-04-18T04:17:52.563Z,100.00
2023-04-18T04:20:24.171Z,100.00
2023-04-18T04:22:58.664Z,100.00
2023-04-18T04:25:28.632Z,100.00
2023-04-18T04:27:57.508Z,100.00
2023-04-18T04:30:24.119Z,100.00
2023-04-18T04:32:51.097Z,100.00
2023-04-18T04:35:17.894Z,100.00
2023-04-18T04:37:45.123Z,100.00
2023-04-18T04:40:20.694Z,100.00
2023-04-18T04:42:56.151Z,100.00
2023-04-18T04:45:29.250Z,100.00
2023-04-18T04:47:55.806Z,97.39
2023-04-18T04:50:22.755Z,91.93
2023-04-18T04:52:49.846Z,87.66
2023-04-18T04:55:17.464Z,83.84
2023-04-18T04:57:44.929Z,82.55
2023-04-18T05:00:32.816Z,81.45
2023-04-18T05:02:59.896Z,78.36
2023-04-18T05:05:27.077Z,75.02
2023-04-18T05:07:54.184Z,71.41
2023-04-18T05:10:21.621Z,74.95
2023-04-18T05:12:48.051Z,71.64
2023-04-18T05:15:16.195Z,73.22
2023-04-18T05:17:42.763Z,69.42
2023-04-18T05:20:10.037Z,69.10
2023-04-18T05:22:36.665Z,67.33
2023-04-18T05:25:03.348Z,66.22
2023-04-18T05:27:29.812Z,66.45
2023-04-18T05:29:56.294Z,66.36
2023-04-18T05:32:22.811Z,64.53
2023-04-18T05:34:49.319Z,61.95
2023-04-18T05:37:15.809Z,61.41
2023-04-18T05:39:42.402Z,57.48
2023-04-18T05:42:08.855Z,58.59
2023-04-18T05:44:35.769Z,58.50
2023-04-18T05:47:02.317Z,59.88
2023-04-18T05:49:28.699Z,59.39
2023-04-18T05:51:56.451Z,58.29
2023-04-18T05:54:25.020Z,58.08
2023-04-18T05:56:51.752Z,56.61
2023-04-18T05:59:18.215Z,57.94
2023-04-18T06:01:44.649Z,55.18
2023-04-18T06:04:11.261Z,53.23
2023-04-18T06:06:38.140Z,53.38
2023-04-18T06:09:04.711Z,54.29
2023-04-18T06:11:33.569Z,54.73
2023-04-18T06:14:00.132Z,54.60
2023-04-18T06:16:27.040Z,53.78
2023-04-18T06:18:53.549Z,56.96
2023-04-18T06:21:20.384Z,57.34
2023-04-18T06:23:46.924Z,54.83
2023-04-18T06:26:13.381Z,55.91
2023-04-18T06:28:39.928Z,58.14
2023-04-18T06:31:06.321Z,61.97
2023-04-18T06:33:33.438Z,65.29
2023-04-18T06:35:59.910Z,67.96
2023-04-18T06:38:26.290Z,70.47
2023-04-18T06:40:52.886Z,70.36
2023-04-18T06:43:19.275Z,70.80
2023-04-18T06:45:45.877Z,68.01
2023-04-18T06:48:12.393Z,73.47
2023-04-18T06:50:38.961Z,74.18
2023-04-18T06:53:05.341Z,76.86
2023-04-18T06:55:31.824Z,78.27
2023-04-18T06:58:00.333Z,75.78
2023-04-18T07:00:26.912Z,77.52
2023-04-18T07:02:53.575Z,76.02
2023-04-18T07:05:20.150Z,74.61
2023-04-18T07:07:46.569Z,73.58
2023-04-18T07:10:13.051Z,72.87
2023-04-18T07:12:39.423Z,70.62
2023-04-18T07:15:06.414Z,72.04
2023-04-18T07:17:32.980Z,69.92
2023-04-18T07:19:59.695Z,72.17
2023-04-18T07:22:26.275Z,70.36
2023-04-18T07:24:52.693Z,71.72
2023-04-18T07:27:19.152Z,68.63
2023-04-18T07:29:45.725Z,66.35
2023-04-18T07:32:12.200Z,67.72
2023-04-18T07:34:40.232Z,69.33
2023-04-18T07:37:07.004Z,70.64
2023-04-18T07:39:35.975Z,70.38
2023-04-18T07:42:05.448Z,72.34
2023-04-18T07:44:31.978Z,71.48
2023-04-18T07:46:58.734Z,72.01
2023-04-18T07:49:25.433Z,74.21
2023-04-18T07:51:51.945Z,72.83
2023-04-18T07:54:18.373Z,74.32
2023-04-18T07:56:44.796Z,74.64
2023-04-18T07:59:11.451Z,73.99
2023-04-18T08:01:37.909Z,75.62
2023-04-18T08:04:04.625Z,73.45
2023-04-18T08:06:31.406Z,71.26
2023-04-18T08:08:59.040Z,74.63
2023-04-18T08:11:25.566Z,73.06
2023-04-18T08:13:51.970Z,74.10
2023-04-18T08:16:18.543Z,73.56
2023-04-18T08:18:45.064Z,73.43
2023-04-18T08:21:11.522Z,73.20
2023-04-18T08:23:38.039Z,70.51
2023-04-18T08:26:04.554Z,72.21
2023-04-18T08:28:30.981Z,70.52
2023-04-18T08:30:57.528Z,69.80
2023-04-18T08:33:24.472Z,69.24
2023-04-18T08:35:51.846Z,67.98
2023-04-18T08:38:19.084Z,65.46
2023-04-18T08:40:46.371Z,69.13
2023-04-18T08:43:15.001Z,66.89
2023-04-18T08:45:42.724Z,66.81
2023-04-18T08:48:16.701Z,64.76
2023-04-18T08:50:44.428Z,64.75
2023-04-18T08:53:11.298Z,66.97
2023-04-18T08:55:37.895Z,66.69
2023-04-18T08:58:07.024Z,65.23
2023-04-18T09:00:33.553Z,63.80
2023-04-18T09:03:00.123Z,63.20
2023-04-18T09:05:27.556Z,64.17
2023-04-18T09:07:56.107Z,65.88
2023-04-18T09:10:30.922Z,66.34
2023-04-18T09:12:58.910Z,66.46
2023-04-18T09:15:29.642Z,66.56
2023-04-18T09:17:58.591Z,64.48
2023-04-18T09:20:30.696Z,62.82
2023-04-18T09:23:00.662Z,65.19
2023-04-18T09:25:30.479Z,66.28
2023-04-18T09:28:02.042Z,64.17
2023-04-18T09:30:32.008Z,65.42
2023-04-18T09:33:04.446Z,66.74
2023-04-18T09:35:31.525Z,66.14
2023-04-18T09:37:57.982Z,65.72
2023-04-18T09:40:24.602Z,66.54
2023-04-18T09:42:55.602Z,63.07
2023-04-18T09:45:23.489Z,67.19
2023-04-18T09:47:50.985Z,66.51
2023-04-18T09:50:18.386Z,66.43
2023-04-18T09:52:45.738Z,66.40
2023-04-18T09:55:17.555Z,67.99
2023-04-18T09:57:48.543Z,66.71
2023-04-18T10:00:21.534Z,66.24
2023-04-18T10:02:52.363Z,64.79
2023-04-18T10:05:21.426Z,64.32
2023-04-18T10:07:49.858Z,63.83
2023-04-18T10:10:17.191Z,64.02
2023-04-18T10:12:44.680Z,65.55
2023-04-18T10:15:11.945Z,64.95
2023-04-18T10:18:09.575Z,64.56
2023-04-18T10:20:36.713Z,63.75
2023-04-18T10:23:31.230Z,64.43
2023-04-18T10:25:58.626Z,63.75
2023-04-18T10:28:26.509Z,63.36
2023-04-18T10:31:04.083Z,63.26
2023-04-18T10:33:42.392Z,63.55
2023-04-18T10:36:09.182Z,63.17
2023-04-18T10:38:45.153Z,64.04
2023-04-18T10:41:41.942Z,64.43
2023-04-18T10:44:08.856Z,64.36
2023-04-18T10:46:40.520Z,62.47
2023-04-18T10:49:25.166Z,62.23
2023-04-18T10:52:00.664Z,62.21
2023-04-18T10:54:54.299Z,63.01
2023-04-18T10:57:21.627Z,65.13
2023-04-18T10:59:50.339Z,64.34
2023-04-18T11:02:32.204Z,63.93
2023-04-18T11:05:01.466Z,63.50
2023-04-18T11:07:46.231Z,63.00
2023-04-18T11:10:16.163Z,64.06
2023-04-18T11:12:42.856Z,63.86
2023-04-18T11:15:10.789Z,63.76
2023-04-18T11:17:40.004Z,63.62
2023-04-18T11:20:12.651Z,65.03
2023-04-18T11:22:48.324Z,64.88
2023-04-18T11:25:20.261Z,65.22
2023-04-18T11:27:48.699Z,64.67
2023-04-18T11:30:15.628Z,63.34
2023-04-18T11:32:42.380Z,62.57
2023-04-18T11:35:10.984Z,62.13
2023-04-18T11:37:39.502Z,63.24
2023-04-18T11:40:08.395Z,63.08
2023-04-18T11:42:37.065Z,62.34
2023-04-18T11:45:03.871Z,62.42
2023-04-18T11:47:32.968Z,61.37
2023-04-18T11:50:02.227Z,59.47
2023-04-18T11:52:31.006Z,60.80
2023-04-18T11:55:30.217Z,63.15
2023-04-18T11:57:58.504Z,63.41
2023-04-18T12:00:41.599Z,63.42
2023-04-18T12:03:15.726Z,62.45
2023-04-18T12:05:42.730Z,62.56
2023-04-18T12:08:11.858Z,62.85
2023-04-18T12:10:46.377Z,62.58
2023-04-18T12:13:13.193Z,62.34
2023-04-18T12:15:41.113Z,61.25
2023-04-18T12:18:10.678Z,61.50
2023-04-18T12:20:46.680Z,59.39
2023-04-18T12:23:34.242Z,60.91
2023-04-18T12:26:01.882Z,60.88
2023-04-18T12:28:28.622Z,59.98
2023-04-18T12:30:55.836Z,58.25
2023-04-18T12:33:22.398Z,59.73
2023-04-18T12:35:49.663Z,58.40
2023-04-18T12:38:21.155Z,57.41
2023-04-18T12:40:48.153Z,57.64
2023-04-18T12:43:14.757Z,56.66
2023-04-18T12:45:41.296Z,57.73
2023-04-18T12:48:07.765Z,57.94
2023-04-18T12:50:34.502Z,57.19
2023-04-18T12:53:02.075Z,56.27
2023-04-18T12:55:29.179Z,55.00
2023-04-18T12:57:56.102Z,57.50
2023-04-18T13:00:23.896Z,54.46
2023-04-18T13:02:50.953Z,55.80
2023-04-18T13:05:19.901Z,54.49
2023-04-18T13:07:48.924Z,54.93
2023-04-18T13:10:20.413Z,55.49
2023-04-18T13:12:48.699Z,56.48
2023-04-18T13:15:16.131Z,57.64
2023-04-18T13:17:43.726Z,56.65
2023-04-18T13:20:12.362Z,57.89
2023-04-18T13:22:40.183Z,58.86
2023-04-18T13:25:08.206Z,58.19
2023-04-18T13:27:34.733Z,57.18
2023-04-18T13:30:01.320Z,59.83
2023-04-18T13:32:27.977Z,57.00
2023-04-18T13:34:56.069Z,59.11
2023-04-18T13:37:23.130Z,58.87
2023-04-18T13:39:49.644Z,59.43
2023-04-18T13:42:16.480Z,60.87
2023-04-18T13:44:42.941Z,59.74
2023-04-18T13:47:09.350Z,60.00
2023-04-18T13:49:36.401Z,60.77
2023-04-18T13:52:04.263Z,59.07
2023-04-18T13:54:32.122Z,59.60
2023-04-18T13:57:03.039Z,58.76
2023-04-18T13:59:31.638Z,60.14
2023-04-18T14:01:58.290Z,59.60
2023-04-18T14:04:25.077Z,58.72
2023-04-18T14:06:51.737Z,60.39
2023-04-18T14:09:18.118Z,60.39
2023-04-18T14:11:45.302Z,60.37
2023-04-18T14:14:11.808Z,61.94
2023-04-18T14:16:38.183Z,61.09
2023-04-18T14:19:04.841Z,62.42
2023-04-18T14:21:31.540Z,63.57
2023-04-18T14:23:58.187Z,62.00
2023-04-18T14:26:24.756Z,61.20
2023-04-18T14:28:51.293Z,62.37
2023-04-18T14:31:17.820Z,63.38
2023-04-18T14:33:44.722Z,62.67
2023-04-18T14:36:11.329Z,62.30
2023-04-18T14:38:37.985Z,62.58
2023-04-18T14:41:05.608Z,63.56
2023-04-18T14:43:32.302Z,63.56
2023-04-18T14:45:59.695Z,64.13
2023-04-18T14:48:27.156Z,64.64
2023-04-18T14:50:58.035Z,64.02
2023-04-18T14:53:24.946Z,64.94
2023-04-18T14:55:51.475Z,65.33
2023-04-18T14:58:17.849Z,64.80
2023-04-18T15:00:44.373Z,64.55
2023-04-18T15:03:11.470Z,64.83
2023-04-18T15:05:42.819Z,65.37
2023-04-18T15:08:11.004Z,65.50
2023-04-18T15:10:38.472Z,65.01
2023-04-18T15:13:05.023Z,66.66
2023-04-18T15:15:34.872Z,66.37
2023-04-18T15:18:02.447Z,65.90
2023-04-18T15:20:29.627Z,66.25
2023-04-18T15:22:56.898Z,66.22
2023-04-18T15:25:23.552Z,66.94
2023-04-18T15:27:50.125Z,67.23
2023-04-18T15:30:16.629Z,67.27
2023-04-18T15:32:44.102Z,66.50
2023-04-18T15:35:11.886Z,66.92
2023-04-18T15:37:38.400Z,66.82
2023-04-18T15:40:09.593Z,66.66
2023-04-18T15:42:36.350Z,67.08
2023-04-18T15:45:04.316Z,68.02
2023-04-18T15:47:33.660Z,66.77
2023-04-18T15:50:00.574Z,67.13
2023-04-18T15:52:27.950Z,68.18
2023-04-18T15:54:54.527Z,68.45
2023-04-18T15:57:21.733Z,68.18
2023-04-18T15:59:48.189Z,68.66
2023-04-18T16:02:14.986Z,66.66
2023-04-18T16:04:41.467Z,66.77
2023-04-18T16:07:08.783Z,68.48
2023-04-18T16:09:35.255Z,68.57
2023-04-18T16:12:03.201Z,67.63
2023-04-18T16:14:31.183Z,68.03
2023-04-18T16:16:58.827Z,66.64
2023-04-18T16:19:25.352Z,68.39
2023-04-18T16:21:51.844Z,67.77
2023-04-18T16:24:18.737Z,68.88
2023-04-18T16:26:45.251Z,68.69
2023-04-18T16:29:11.608Z,69.56
2023-04-18T16:31:38.302Z,68.21
2023-04-18T16:34:04.846Z,69.26
2023-04-18T16:36:32.745Z,68.88
2023-04-18T16:38:59.183Z,69.52
2023-04-18T16:41:25.658Z,69.84
2023-04-18T16:43:52.061Z,70.17
2023-04-18T16:46:19.152Z,70.08
2023-04-18T16:48:45.754Z,70.88
2023-04-18T16:51:13.124Z,69.68
2023-04-18T16:53:39.587Z,70.94
2023-04-18T16:56:08.112Z,71.51
2023-04-18T16:58:34.619Z,70.94
2023-04-18T17:01:01.891Z,72.42
2023-04-18T17:03:28.385Z,72.36
2023-04-18T17:05:55.691Z,72.67
2023-04-18T17:08:22.185Z,72.50
2023-04-18T17:10:51.025Z,72.82
2023-04-18T17:13:17.524Z,72.17
2023-04-18T17:15:43.990Z,72.78
2023-04-18T17:18:10.623Z,73.99
2023-04-18T17:20:37.205Z,72.61
2023-04-18T17:23:03.576Z,72.63
2023-04-18T17:25:30.128Z,73.84
2023-04-18T17:27:56.557Z,72.51
2023-04-18T17:30:23.169Z,71.74
2023-04-18T17:32:50.464Z,73.06
2023-04-18T17:35:17.090Z,74.21
2023-04-18T17:37:43.557Z,72.20
2023-04-18T17:40:11.564Z,72.01
2023-04-18T17:42:38.359Z,72.62
2023-04-18T17:45:06.629Z,72.12
2023-04-18T17:47:34.060Z,73.17
2023-04-18T17:50:00.855Z,72.90
2023-04-18T17:52:30.554Z,74.72
2023-04-18T17:54:57.297Z,73.33
2023-04-18T17:57:25.943Z,74.25
2023-04-18T17:59:52.586Z,74.22
2023-04-18T18:02:19.543Z,74.37
2023-04-18T18:04:47.001Z,74.91
2023-04-18T18:07:13.574Z,74.00
2023-04-18T18:09:41.593Z,73.66
2023-04-18T18:12:09.882Z,73.07
2023-04-18T18:14:36.527Z,74.10
2023-04-18T18:17:04.152Z,75.29
2023-04-18T18:19:30.757Z,76.15
2023-04-18T18:21:57.175Z,75.67
2023-04-18T18:24:25.590Z,75.43
2023-04-18T18:26:52.233Z,75.23
2023-04-18T18:29:19.315Z,76.43
2023-04-18T18:31:45.981Z,75.67
2023-04-18T18:34:12.607Z,76.71
2023-04-18T18:36:40.118Z,77.12
2023-04-18T18:39:06.949Z,77.14
2023-04-18T18:41:33.423Z,76.52
2023-04-18T18:43:59.934Z,76.92
2023-04-18T18:46:27.255Z,76.60
2023-04-18T18:48:53.778Z,75.72
2023-04-18T18:51:20.171Z,75.81
2023-04-18T18:53:46.708Z,75.62
2023-04-18T18:56:13.219Z,76.11
2023-04-18T18:58:40.396Z,76.92
2023-04-18T19:01:07.200Z,77.23
2023-04-18T19:03:34.776Z,76.19
2023-04-18T19:06:03.930Z,76.14
2023-04-18T19:08:30.956Z,77.36
2023-04-18T19:10:57.469Z,78.16
2023-04-18T19:13:24.211Z,77.93
2023-04-18T19:15:51.148Z,78.00
2023-04-18T19:18:19.859Z,78.32
2023-04-18T19:20:46.924Z,78.05
2023-04-18T19:23:13.515Z,79.23
2023-04-18T19:25:40.100Z,79.70
2023-04-18T19:28:06.657Z,78.99
2023-04-18T19:30:33.048Z,77.43
2023-04-18T19:32:59.605Z,77.22
2023-04-18T19:35:26.088Z,79.08
2023-04-18T19:37:55.765Z,79.14
2023-04-18T19:40:23.694Z,79.69
2023-04-18T19:42:50.168Z,77.74
2023-04-18T19:45:16.676Z,77.30
2023-04-18T19:47:44.293Z,76.58
2023-04-18T19:50:11.444Z,78.08
2023-04-18T19:52:37.901Z,79.64
2023-04-18T19:55:04.531Z,79.12
2023-04-18T19:57:31.148Z,77.97
2023-04-18T19:59:57.571Z,79.75
2023-04-18T20:02:24.317Z,80.57
2023-04-18T20:04:51.169Z,80.55
2023-04-18T20:07:17.895Z,80.98
2023-04-18T20:09:44.285Z,80.41
2023-04-18T20:12:10.814Z,79.79
2023-04-18T20:14:37.234Z,80.71
2023-04-18T20:17:03.763Z,81.04
2023-04-18T20:19:30.202Z,80.80
2023-04-18T20:21:56.918Z,81.48
2023-04-18T20:24:23.782Z,81.40
2023-04-18T20:26:51.340Z,78.74
2023-04-18T20:29:17.852Z,80.51
2023-04-18T20:31:44.356Z,80.67
2023-04-18T20:34:11.007Z,80.54
2023-04-18T20:36:41.461Z,80.42
2023-04-18T20:39:12.724Z,80.36
2023-04-18T20:41:49.099Z,81.89
2023-04-18T20:44:16.868Z,81.28
2023-04-18T20:46:43.386Z,78.87
2023-04-18T20:49:10.010Z,79.87
2023-04-18T20:51:37.075Z,80.45
2023-04-18T20:54:04.538Z,80.83
2023-04-18T20:56:32.046Z,80.85
2023-04-18T20:58:58.517Z,79.98
2023-04-18T21:01:25.183Z,81.56
2023-04-18T21:03:51.746Z,82.44
2023-04-18T21:06:21.939Z,81.69
2023-04-18T21:08:48.806Z,80.79
2023-04-18T21:11:15.359Z,82.38
2023-04-18T21:13:41.750Z,81.99
2023-04-18T21:16:10.220Z,81.90
2023-04-18T21:18:37.136Z,80.71
2023-04-18T21:21:04.256Z,80.27
2023-04-18T21:23:30.727Z,81.10
2023-04-18T21:25:57.076Z,81.27
2023-04-18T21:28:23.590Z,82.48
2023-04-18T21:30:49.959Z,81.89
2023-04-18T21:33:16.569Z,82.15
2023-04-18T21:35:43.023Z,82.78
2023-04-18T21:38:09.438Z,83.46
2023-04-18T21:40:37.304Z,83.16
2023-04-18T21:43:03.813Z,83.47
2023-04-18T21:45:30.408Z,83.40
2023-04-18T21:47:56.912Z,83.10
2023-04-18T21:50:23.428Z,82.17
2023-04-18T21:52:49.941Z,83.55
2023-04-18T21:55:17.407Z,83.57
2023-04-18T21:57:43.926Z,83.67
2023-04-18T22:17:32.350Z,89.79
2023-04-18T22:19:59.569Z,88.92
2023-04-18T22:22:26.118Z,88.42
2023-04-18T22:24:52.557Z,86.31
2023-04-18T22:27:19.082Z,85.68
2023-04-18T22:29:45.485Z,84.98
2023-04-18T22:32:12.009Z,86.05
2023-04-18T22:34:38.485Z,85.59
2023-04-18T22:37:06.071Z,83.40
2023-04-18T22:39:32.550Z,85.44
2023-04-18T22:41:58.957Z,84.85
2023-04-18T22:44:25.454Z,85.57
2023-04-18T22:46:54.571Z,86.48
2023-04-18T22:49:22.193Z,85.24
2023-04-18T22:51:49.555Z,84.43
2023-04-18T22:54:16.203Z,85.20
2023-04-18T22:56:42.878Z,86.06
2023-04-18T22:59:09.404Z,86.64
2023-04-18T23:01:36.004Z,85.63
2023-04-18T23:04:02.761Z,84.45
2023-04-18T23:06:29.984Z,85.55
2023-04-18T23:08:56.568Z,86.34
2023-04-18T23:11:23.099Z,87.00
2023-04-18T23:13:49.500Z,85.12
2023-04-18T23:16:16.318Z,87.08
2023-04-18T23:18:42.795Z,87.04
2023-04-18T23:21:09.211Z,84.00
2023-04-18T23:23:35.760Z,85.84
2023-04-18T23:26:02.166Z,85.41
2023-04-18T23:28:28.773Z,86.35
2023-04-18T23:30:55.560Z,85.70
2023-04-18T23:33:22.349Z,86.82
2023-04-18T23:35:48.852Z,86.42
2023-04-18T23:38:15.384Z,86.59
2023-04-18T23:40:41.893Z,85.92
2023-04-18T23:43:08.321Z,87.24
2023-04-18T23:45:34.803Z,87.24
2023-04-18T23:48:02.354Z,86.86
2023-04-18T23:50:28.961Z,87.52
2023-04-18T23:52:55.458Z,86.85
2023-04-18T23:55:22.025Z,86.22
2023-04-18T23:57:48.643Z,85.31
